createdAt,value
2022-08-17T00:02:01.447Z,43.19
2022-08-17T00:04:57.486Z,42.89
2022-08-17T00:07:46.112Z,42.93
2022-08-17T00:10:34.646Z,42.97
2022-08-17T00:13:25.959Z,43.31
2022-08-17T00:16:16.782Z,43.16
2022-08-17T00:19:08.837Z,42.89
2022-08-17T00:22:29.917Z,43.29
2022-08-17T00:25:15.082Z,43.27
2022-08-17T00:28:03.799Z,43.44
2022-08-17T00:30:53.834Z,43.02
2022-08-17T00:33:45.361Z,43.31
2022-08-17T00:36:34.223Z,43.15
2022-08-17T00:39:24.134Z,43.58
2022-08-17T00:42:15.527Z,43.12
2022-08-17T00:45:04.999Z,43.39
2022-08-17T00:47:53.489Z,43.68
2022-08-17T00:50:45.394Z,43.26
2022-08-17T00:53:36.685Z,43.09
2022-08-17T00:56:31.247Z,43.24
2022-08-17T00:59:22.379Z,43.45
2022-08-17T01:02:11.789Z,43.48
2022-08-17T01:05:00.408Z,43.32
2022-08-17T01:07:50.721Z,43.33
2022-08-17T01:11:01.122Z,43.65
2022-08-17T01:13:51.589Z,43.27
2022-08-17T01:16:40.403Z,43.54
2022-08-17T01:19:31.623Z,43.07
2022-08-17T01:22:23.590Z,43.67
2022-08-17T01:25:13.367Z,43.05
2022-08-17T01:28:02.343Z,43.25
2022-08-17T01:30:57.879Z,43.13
2022-08-17T01:33:47.919Z,43.81
2022-08-17T01:36:36.800Z,43.56
2022-08-17T01:39:35.885Z,43.49
2022-08-17T01:42:26.234Z,43.16
2022-08-17T01:45:18.642Z,43.23
2022-08-17T01:48:07.448Z,43.36
2022-08-17T01:50:55.993Z,43.67
2022-08-17T01:53:47.744Z,43.48
2022-08-17T01:56:42.420Z,43.84
2022-08-17T01:59:31.007Z,43.36
2022-08-17T02:02:30.801Z,43.79
2022-08-17T02:05:20.121Z,43.65
2022-08-17T02:08:08.870Z,43.17
2022-08-17T02:11:14.648Z,43.49
2022-08-17T02:14:05.110Z,43.68
2022-08-17T02:16:54.326Z,43.80
2022-08-17T02:19:42.836Z,43.73
2022-08-17T02:22:31.881Z,43.42
2022-08-17T02:25:22.659Z,43.56
2022-08-17T02:28:12.747Z,43.69
2022-08-17T02:31:07.663Z,43.26
2022-08-17T02:34:00.492Z,44.02
2022-08-17T02:36:53.042Z,44.09
2022-08-17T02:39:41.611Z,43.74
2022-08-17T02:42:33.870Z,43.80
2022-08-17T02:45:24.434Z,43.61
2022-08-17T02:48:14.297Z,43.65
2022-08-17T02:51:19.299Z,44.11
2022-08-17T02:54:39.447Z,44.00
2022-08-17T02:57:16.347Z,43.62
2022-08-17T03:00:09.659Z,43.44
2022-08-17T03:02:58.840Z,43.58
2022-08-17T03:05:51.247Z,43.72
2022-08-17T03:08:40.708Z,43.78
2022-08-17T03:11:29.224Z,43.77
2022-08-17T03:14:17.770Z,43.64
2022-08-17T03:17:06.620Z,43.57
2022-08-17T03:19:55.243Z,43.35
2022-08-17T03:22:53.352Z,43.36
2022-08-17T03:25:46.034Z,43.53
2022-08-17T03:28:34.652Z,43.58
2022-08-17T03:31:23.199Z,44.10
2022-08-17T03:34:11.673Z,43.61
2022-08-17T03:37:00.179Z,43.68
2022-08-17T03:39:50.059Z,43.87
2022-08-17T03:42:40.172Z,44.29
2022-08-17T03:45:42.635Z,44.20
2022-08-17T03:48:49.653Z,44.07
2022-08-17T03:51:55.941Z,43.89
2022-08-17T03:55:02.997Z,43.81
2022-08-17T03:57:52.848Z,44.26
2022-08-17T04:00:45.687Z,43.96
2022-08-17T04:03:34.392Z,44.32
2022-08-17T04:06:22.870Z,44.42
2022-08-17T04:09:12.238Z,43.94
2022-08-17T04:12:02.452Z,44.00
2022-08-17T04:14:55.224Z,44.15
2022-08-17T04:17:45.805Z,44.24
2022-08-17T04:20:34.924Z,44.54
2022-08-17T04:23:23.547Z,44.59
2022-08-17T04:26:12.499Z,44.63
2022-08-17T04:29:21.590Z,44.61
2022-08-17T04:32:11.430Z,44.52
2022-08-17T04:35:00.856Z,44.79
2022-08-17T04:37:49.359Z,44.42
2022-08-17T04:40:56.017Z,44.68
2022-08-17T04:43:55.953Z,44.36
2022-08-17T04:46:44.506Z,44.28
2022-08-17T04:49:35.056Z,44.10
2022-08-17T04:52:29.784Z,44.19
2022-08-17T04:55:31.919Z,43.94
2022-08-17T04:58:20.472Z,44.20
2022-08-17T05:01:09.299Z,43.95
2022-08-17T05:04:00.114Z,44.29
2022-08-17T05:07:08.317Z,43.68
2022-08-17T05:09:56.751Z,43.84
2022-08-17T05:12:45.378Z,44.03
2022-08-17T05:15:36.078Z,44.01
2022-08-17T05:18:24.863Z,43.78
2022-08-17T05:21:13.799Z,44.20
2022-08-17T05:24:09.696Z,44.20
2022-08-17T05:27:17.786Z,43.51
2022-08-17T05:30:08.770Z,44.08
2022-08-17T05:32:59.904Z,43.51
2022-08-17T05:35:50.297Z,43.70
2022-08-17T05:38:39.011Z,43.22
2022-08-17T05:41:28.927Z,43.76
2022-08-17T05:44:17.963Z,43.08
2022-08-17T05:47:09.943Z,43.17
2022-08-17T05:49:59.747Z,43.48
2022-08-17T05:52:58.441Z,43.28
2022-08-17T05:55:50.790Z,43.06
2022-08-17T05:58:46.871Z,43.03
2022-08-17T06:01:40.757Z,42.76
2022-08-17T06:04:34.622Z,43.43
2022-08-17T06:07:30.231Z,43.34
2022-08-17T06:10:25.147Z,42.95
2022-08-17T06:13:20.061Z,42.82
2022-08-17T06:16:33.175Z,43.31
2022-08-17T06:19:28.912Z,43.09
2022-08-17T06:22:20.773Z,42.68
2022-08-17T06:25:14.820Z,43.33
2022-08-17T06:28:05.251Z,43.65
2022-08-17T06:31:00.823Z,43.16
2022-08-17T06:33:51.872Z,43.62
2022-08-17T06:36:50.325Z,43.91
2022-08-17T06:39:48.415Z,43.72
2022-08-17T06:43:02.092Z,43.42
2022-08-17T06:45:59.452Z,43.31
2022-08-17T06:49:07.440Z,43.53
2022-08-17T06:51:58.967Z,44.02
2022-08-17T06:54:56.033Z,44.01
2022-08-17T06:57:47.825Z,43.64
2022-08-17T07:00:41.753Z,43.44
2022-08-17T07:03:37.569Z,44.05
2022-08-17T07:06:31.252Z,43.94
2022-08-17T07:09:31.212Z,43.99
2022-08-17T07:12:23.420Z,43.48
2022-08-17T07:15:14.762Z,43.38
2022-08-17T07:18:03.907Z,43.56
2022-08-17T07:20:55.853Z,43.69
2022-08-17T07:23:56.598Z,43.48
2022-08-17T07:26:46.635Z,43.96
2022-08-17T07:29:40.234Z,44.10
2022-08-17T07:32:32.487Z,43.70
2022-08-17T07:35:23.570Z,43.96
2022-08-17T07:38:28.536Z,43.57
2022-08-17T07:41:21.883Z,43.71
2022-08-17T07:44:14.268Z,43.91
2022-08-17T07:47:20.451Z,44.13
2022-08-17T07:50:27.040Z,44.24
2022-08-17T07:53:19.229Z,43.69
2022-08-17T07:56:07.941Z,44.02
2022-08-17T07:59:08.334Z,43.84
2022-08-17T08:02:31.873Z,44.07
2022-08-17T08:05:49.715Z,43.69
2022-08-17T08:08:42.252Z,43.83
2022-08-17T08:11:32.991Z,43.42
2022-08-17T08:14:29.441Z,44.02
2022-08-17T08:17:26.138Z,43.62
2022-08-17T08:20:47.773Z,43.57
2022-08-17T08:23:35.362Z,43.53
2022-08-17T08:26:29.510Z,43.90
2022-08-17T08:29:23.613Z,43.91
2022-08-17T08:32:18.232Z,43.82
2022-08-17T08:35:10.827Z,43.94
2022-08-17T08:38:05.968Z,43.76
2022-08-17T08:41:05.744Z,43.89
2022-08-17T08:44:03.636Z,43.79
2022-08-17T08:47:00.454Z,43.22
2022-08-17T08:50:31.809Z,43.84
2022-08-17T08:53:24.853Z,43.63
2022-08-17T08:56:18.621Z,43.52
2022-08-17T08:59:14.894Z,43.65
2022-08-17T09:02:10.744Z,43.34
2022-08-17T09:05:15.539Z,43.21
2022-08-17T09:08:12.240Z,43.39
2022-08-17T09:11:06.040Z,43.39
2022-08-17T09:14:00.452Z,43.50
2022-08-17T09:16:58.045Z,43.42
2022-08-17T09:19:48.506Z,43.38
2022-08-17T09:22:42.653Z,43.60
2022-08-17T09:25:34.389Z,43.13
2022-08-17T09:28:29.465Z,43.16
2022-08-17T09:31:24.046Z,43.43
2022-08-17T09:34:15.458Z,43.47
2022-08-17T09:37:17.740Z,43.18
2022-08-17T09:40:26.754Z,43.11
2022-08-17T09:43:27.767Z,42.82
2022-08-17T09:46:18.749Z,43.00
2022-08-17T09:49:12.239Z,43.40
2022-08-17T09:52:04.737Z,42.93
2022-08-17T09:54:55.282Z,43.16
2022-08-17T09:57:58.657Z,42.89
2022-08-17T10:00:53.461Z,43.36
2022-08-17T10:04:01.398Z,43.39
2022-08-17T10:06:57.631Z,43.33
2022-08-17T10:10:03.958Z,43.00
2022-08-17T10:12:59.183Z,43.38
2022-08-17T10:15:52.635Z,42.94
2022-08-17T10:18:52.282Z,42.75
2022-08-17T10:22:01.065Z,42.96
2022-08-17T10:25:23.263Z,43.14
2022-08-17T10:28:20.292Z,42.81
2022-08-17T10:31:33.549Z,42.85
2022-08-17T10:34:41.232Z,42.75
2022-08-17T10:37:49.219Z,43.21
2022-08-17T10:40:45.447Z,43.02
2022-08-17T10:43:44.630Z,43.06
2022-08-17T10:47:02.966Z,43.05
2022-08-17T10:49:54.527Z,42.97
2022-08-17T10:52:49.323Z,43.10
2022-08-17T10:55:39.125Z,42.82
2022-08-17T10:58:42.180Z,43.00
2022-08-17T11:02:03.304Z,42.86
2022-08-17T11:04:59.815Z,42.91
2022-08-17T11:07:59.865Z,43.13
2022-08-17T11:11:00.312Z,42.81
2022-08-17T11:13:55.029Z,43.13
2022-08-17T11:16:51.776Z,42.76
2022-08-17T11:20:14.943Z,42.52
2022-08-17T11:23:30.235Z,42.99
2022-08-17T11:26:26.007Z,42.80
2022-08-17T11:29:24.789Z,42.86
2022-08-17T11:32:31.199Z,42.54
2022-08-17T11:35:36.172Z,42.83
2022-08-17T11:38:31.269Z,42.72
2022-08-17T11:41:22.276Z,42.96
2022-08-17T11:44:24.509Z,42.61
2022-08-17T11:47:34.838Z,42.53
2022-08-17T11:50:55.947Z,42.79
2022-08-17T11:54:32.319Z,42.54
2022-08-17T11:58:05.910Z,42.84
2022-08-17T12:00:58.345Z,42.55
2022-08-17T12:03:55.241Z,42.40
2022-08-17T12:06:47.285Z,42.84
2022-08-17T12:09:39.646Z,42.60
2022-08-17T12:12:33.357Z,42.49
2022-08-17T12:15:29.562Z,42.50
2022-08-17T12:18:24.504Z,42.53
2022-08-17T12:21:28.933Z,42.60
2022-08-17T12:24:29.190Z,42.69
2022-08-17T12:27:43.133Z,42.62
2022-08-17T12:30:33.784Z,42.51
2022-08-17T12:33:28.669Z,42.57
2022-08-17T12:36:20.878Z,42.81
2022-08-17T12:39:13.819Z,42.84
2022-08-17T12:42:04.652Z,42.83
2022-08-17T12:44:53.132Z,42.84
2022-08-17T12:47:42.349Z,42.75
2022-08-17T12:50:32.312Z,42.64
2022-08-17T12:53:24.747Z,42.81
2022-08-17T12:56:14.962Z,42.66
2022-08-17T12:59:03.972Z,42.86
2022-08-17T13:01:53.574Z,43.02
2022-08-17T13:04:42.170Z,42.80
2022-08-17T13:07:35.793Z,42.99
2022-08-17T13:10:32.391Z,42.92
2022-08-17T13:13:23.214Z,42.73
2022-08-17T13:16:18.193Z,42.82
2022-08-17T13:19:09.537Z,42.91
2022-08-17T13:22:00.298Z,43.06
2022-08-17T13:24:54.481Z,43.32
2022-08-17T13:27:44.114Z,43.07
2022-08-17T13:30:33.846Z,43.26
2022-08-17T13:33:43.427Z,43.55
2022-08-17T13:36:33.488Z,43.25
2022-08-17T13:39:24.316Z,43.64
2022-08-17T13:42:32.759Z,43.30
2022-08-17T13:45:50.814Z,43.59
2022-08-17T13:48:39.677Z,43.76
2022-08-17T13:51:31.406Z,43.59
2022-08-17T13:54:25.161Z,43.50
2022-08-17T13:57:21.852Z,43.66
2022-08-17T14:00:19.446Z,43.60
2022-08-17T14:03:07.979Z,44.06
2022-08-17T14:05:56.482Z,43.79
2022-08-17T14:08:44.905Z,43.76
2022-08-17T14:11:33.607Z,43.73
2022-08-17T14:14:23.617Z,43.51
2022-08-17T14:17:13.995Z,43.31
2022-08-17T14:20:02.447Z,43.36
2022-08-17T14:22:52.929Z,43.46
2022-08-17T14:25:41.474Z,43.30
2022-08-17T14:28:29.985Z,43.14
2022-08-17T14:31:19.276Z,43.55
2022-08-17T14:34:10.441Z,43.28
2022-08-17T14:36:59.009Z,43.26
2022-08-17T14:39:47.623Z,43.23
2022-08-17T14:42:38.206Z,43.18
2022-08-17T14:45:31.946Z,43.34
2022-08-17T14:48:21.864Z,43.14
2022-08-17T14:51:11.990Z,43.37
2022-08-17T14:54:00.453Z,43.17
2022-08-17T14:56:48.961Z,42.99
2022-08-17T14:59:45.545Z,43.05
2022-08-17T15:02:45.450Z,43.06
2022-08-17T15:05:36.488Z,43.13
2022-08-17T15:08:26.361Z,42.95
2022-08-17T15:11:14.972Z,43.05
2022-08-17T15:14:03.422Z,43.08
2022-08-17T15:16:51.885Z,42.86
2022-08-17T15:19:40.633Z,42.88
2022-08-17T15:22:29.546Z,42.97
2022-08-17T15:25:22.123Z,43.11
2022-08-17T15:28:10.693Z,43.00
2022-08-17T15:30:59.210Z,43.07
2022-08-17T15:33:47.785Z,43.20
2022-08-17T15:36:36.342Z,43.20
2022-08-17T15:39:24.891Z,43.00
2022-08-17T15:42:14.726Z,42.91
2022-08-17T15:45:06.847Z,42.92
2022-08-17T15:47:55.627Z,42.99
2022-08-17T15:50:45.161Z,43.16
2022-08-17T15:53:33.710Z,43.20
2022-08-17T15:56:22.493Z,43.43
2022-08-17T15:59:12.450Z,44.10
2022-08-17T16:03:14.773Z,43.54
2022-08-17T16:05:12.367Z,43.41
2022-08-17T16:08:02.036Z,43.94
2022-08-17T16:10:51.535Z,43.74
2022-08-17T16:13:40.678Z,43.63
2022-08-17T16:16:31.325Z,43.45
2022-08-17T16:19:19.940Z,43.25
2022-08-17T16:22:10.572Z,43.42
2022-08-17T16:24:59.061Z,43.62
2022-08-17T16:27:48.267Z,43.73
2022-08-17T16:30:37.267Z,43.39
2022-08-17T16:33:27.163Z,43.61
2022-08-17T16:36:16.712Z,43.18
2022-08-17T16:39:05.371Z,43.69
2022-08-17T16:41:53.857Z,44.13
2022-08-17T16:44:42.327Z,43.93
2022-08-17T16:47:30.831Z,43.91
2022-08-17T16:50:22.600Z,44.09
2022-08-17T16:53:16.199Z,43.76
2022-08-17T16:56:07.555Z,43.96
2022-08-17T16:58:56.144Z,44.00
2022-08-17T17:01:44.688Z,43.94
2022-08-17T17:04:35.171Z,43.78
2022-08-17T17:08:00.730Z,43.64
2022-08-17T17:10:52.691Z,43.89
2022-08-17T17:13:46.784Z,44.12
2022-08-17T17:16:39.115Z,44.65
2022-08-17T17:19:35.226Z,45.04
2022-08-17T17:22:27.617Z,44.65
2022-08-17T17:25:21.260Z,45.23
2022-08-17T17:28:16.813Z,45.04
2022-08-17T17:31:09.995Z,45.00
2022-08-17T17:34:01.398Z,44.72
2022-08-17T17:36:53.847Z,45.11
2022-08-17T17:39:46.300Z,45.52
2022-08-17T17:42:35.683Z,45.01
2022-08-17T17:45:27.401Z,44.66
2022-08-17T17:48:15.871Z,44.32
2022-08-17T17:51:10.415Z,44.36
2022-08-17T17:54:00.196Z,44.21
2022-08-17T17:56:55.675Z,44.52
2022-08-17T17:59:48.294Z,43.93
2022-08-17T18:02:51.454Z,43.47
2022-08-17T18:06:08.162Z,42.80
2022-08-17T18:09:10.283Z,41.48
2022-08-17T18:12:11.929Z,42.11
2022-08-17T18:15:11.128Z,41.91
2022-08-17T18:18:23.325Z,40.84
2022-08-17T18:21:19.310Z,40.67
2022-08-17T18:24:10.745Z,40.89
2022-08-17T18:27:01.285Z,40.39
2022-08-17T18:29:50.090Z,40.59
2022-08-17T18:32:40.793Z,40.24
2022-08-17T18:35:35.163Z,40.41
2022-08-17T18:38:30.261Z,40.45
2022-08-17T18:41:23.512Z,40.72
2022-08-17T18:44:25.926Z,40.77
2022-08-17T18:47:16.331Z,41.56
2022-08-17T18:50:26.346Z,41.52
2022-08-17T18:53:37.485Z,41.14
2022-08-17T18:56:31.823Z,41.00
2022-08-17T18:59:27.864Z,40.97
2022-08-17T19:02:38.692Z,39.58
2022-08-17T19:05:35.982Z,39.18
2022-08-17T19:08:34.256Z,40.16
2022-08-17T19:11:28.758Z,39.13
2022-08-17T19:14:29.205Z,39.13
2022-08-17T19:17:24.851Z,38.84
2022-08-17T19:20:18.017Z,39.30
2022-08-17T19:23:16.629Z,39.96
2022-08-17T19:26:07.487Z,39.16
2022-08-17T19:29:22.404Z,39.27
2022-08-17T19:32:12.967Z,39.50
2022-08-17T19:35:02.269Z,40.11
2022-08-17T19:38:01.991Z,39.77
2022-08-17T19:41:00.941Z,38.95
2022-08-17T19:44:07.782Z,38.53
2022-08-17T19:47:01.677Z,37.43
2022-08-17T19:50:04.003Z,38.14
2022-08-17T19:52:56.290Z,38.68
2022-08-17T19:55:53.941Z,38.79
2022-08-17T19:58:51.646Z,38.47
2022-08-17T20:01:44.574Z,38.89
2022-08-17T20:04:37.742Z,38.74
2022-08-17T20:07:28.691Z,39.09
2022-08-17T20:10:30.798Z,39.90
2022-08-17T20:13:33.179Z,39.59
2022-08-17T20:16:22.349Z,37.83
2022-08-17T20:19:20.837Z,38.09
2022-08-17T20:22:12.652Z,38.74
2022-08-17T20:25:06.594Z,38.53
2022-08-17T20:28:05.951Z,38.97
2022-08-17T20:30:55.407Z,39.00
2022-08-17T20:33:43.916Z,39.04
2022-08-17T20:36:36.856Z,39.57
2022-08-17T20:39:35.244Z,39.58
2022-08-17T20:42:32.135Z,39.71
2022-08-17T20:45:57.983Z,39.99
2022-08-17T20:48:50.654Z,39.28
2022-08-17T20:52:01.394Z,39.35
2022-08-17T20:54:54.193Z,39.45
2022-08-17T20:57:49.935Z,39.61
2022-08-17T21:00:45.635Z,38.91
2022-08-17T21:03:52.157Z,38.67
2022-08-17T21:07:15.252Z,38.59
2022-08-17T21:10:13.997Z,39.08
2022-08-17T21:13:23.559Z,38.85
2022-08-17T21:16:30.592Z,39.34
2022-08-17T21:19:31.054Z,39.72
2022-08-17T21:22:28.507Z,39.75
2022-08-17T21:25:34.365Z,39.39
2022-08-17T21:28:29.941Z,39.37
2022-08-17T21:31:34.405Z,39.05
2022-08-17T21:34:33.881Z,39.03
2022-08-17T21:37:35.824Z,38.73
2022-08-17T21:40:28.952Z,38.93
2022-08-17T21:43:25.273Z,38.65
2022-08-17T21:46:26.489Z,38.80
2022-08-17T21:49:17.838Z,38.80
2022-08-17T21:52:08.981Z,39.51
2022-08-17T21:55:00.282Z,39.43
2022-08-17T21:57:52.950Z,39.04
2022-08-17T22:01:14.832Z,39.04
2022-08-17T22:04:08.645Z,39.56
2022-08-17T22:06:58.923Z,39.05
2022-08-17T22:09:48.992Z,39.37
2022-08-17T22:12:37.487Z,39.02
2022-08-17T22:15:27.967Z,38.80
2022-08-17T22:18:20.186Z,38.81
2022-08-17T22:21:09.501Z,39.16
2022-08-17T22:24:06.903Z,39.03
2022-08-17T22:27:06.927Z,39.63
2022-08-17T22:29:58.359Z,39.45
2022-08-17T22:32:49.858Z,38.79
2022-08-17T22:35:42.636Z,39.20
2022-08-17T22:38:34.497Z,39.40
2022-08-17T22:41:34.406Z,39.53
2022-08-17T22:44:29.519Z,39.27
2022-08-17T22:47:32.155Z,39.70
2022-08-17T22:50:25.796Z,39.79
2022-08-17T22:53:35.315Z,39.89
2022-08-17T22:56:43.321Z,39.39
2022-08-17T22:59:44.208Z,39.48
2022-08-17T23:02:34.078Z,39.62
2022-08-17T23:05:25.458Z,39.95
2022-08-17T23:08:14.424Z,39.40
2022-08-17T23:11:03.129Z,39.67
2022-08-17T23:13:51.799Z,39.35
2022-08-17T23:16:42.406Z,39.18
2022-08-17T23:19:31.774Z,39.25
2022-08-17T23:22:21.783Z,39.23
2022-08-17T23:25:11.824Z,39.79
2022-08-17T23:28:01.504Z,39.52
2022-08-17T23:30:50.405Z,39.50
2022-08-17T23:33:39.895Z,39.19
2022-08-17T23:36:29.460Z,39.39
2022-08-17T23:39:24.484Z,39.80
2022-08-17T23:42:21.596Z,39.66
2022-08-17T23:45:10.931Z,39.70
2022-08-17T23:48:00.315Z,39.71
2022-08-17T23:50:49.186Z,39.45
2022-08-17T23:53:38.946Z,39.72
2022-08-17T23:56:28.821Z,39.42
2022-08-17T23:59:19.286Z,39.62
